createdAt,value
2019-04-21T00:01:02.839Z,10.60
2019-04-21T00:05:24.685Z,10.60
2019-04-21T00:09:33.698Z,10.50
2019-04-21T00:13:27.949Z,10.50
2019-04-21T00:17:23.126Z,10.40
2019-04-21T00:21:36.379Z,10.30
2019-04-21T00:25:46.132Z,10.20
2019-04-21T00:33:47.800Z,10.00
2019-04-21T00:38:13.643Z,10.00
2019-04-21T00:42:16.869Z,10.00
2019-04-21T00:46:12.330Z,9.90
2019-04-21T00:50:40.197Z,9.90
2019-04-21T00:54:49.630Z,9.90
2019-04-21T00:58:49.884Z,9.90
2019-04-21T01:02:56.202Z,9.80
2019-04-21T01:07:05.537Z,9.70
2019-04-21T01:10:52.775Z,9.60
2019-04-21T01:15:18.397Z,9.50
2019-04-21T01:19:16.308Z,9.30
2019-04-21T01:23:02.757Z,9.20
2019-04-21T01:27:18.549Z,9.10
2019-04-21T01:31:30.563Z,9.00
2019-04-21T01:35:41.348Z,8.90
2019-04-21T01:39:46.973Z,8.90
2019-04-21T01:43:53.447Z,8.80
2019-04-21T01:47:56.047Z,8.80
2019-04-21T01:52:19.135Z,8.70
2019-04-21T01:56:30.467Z,8.70
2019-04-21T02:00:41.111Z,8.70
2019-04-21T02:05:00.594Z,8.60
2019-04-21T02:09:01.910Z,9.00
2019-04-21T02:13:03.521Z,9.20
2019-04-21T02:17:15.114Z,9.40
2019-04-21T02:21:05.358Z,9.50
2019-04-21T02:25:25.870Z,9.60
2019-04-21T02:29:37.733Z,9.60
2019-04-21T02:41:54.398Z,9.60
2019-04-21T02:46:10.569Z,9.70
2019-04-21T02:50:11.873Z,9.70
2019-04-21T02:54:40.561Z,9.60
2019-04-21T03:03:16.116Z,9.60
2019-04-21T03:07:47.862Z,9.60
2019-04-21T03:11:25.137Z,9.50
2019-04-21T03:24:01.190Z,9.40
2019-04-21T03:32:33.271Z,9.30
2019-04-21T03:36:41.520Z,9.20
2019-04-21T03:44:32.465Z,9.10
2019-04-21T03:57:06.472Z,8.90
2019-04-21T04:01:04.120Z,8.80
2019-04-21T04:05:29.812Z,8.70
2019-04-21T04:09:49.708Z,8.60
2019-04-21T04:13:49.423Z,8.50
2019-04-21T04:17:41.044Z,8.40
2019-04-21T04:25:57.731Z,8.30
2019-04-21T04:30:08.343Z,8.30
2019-04-21T04:34:22.334Z,8.30
2019-04-21T04:38:33.885Z,8.40
2019-04-21T04:46:43.823Z,9.00
2019-04-21T04:50:49.381Z,9.50
2019-04-21T04:54:55.050Z,10.10
2019-04-21T04:59:19.719Z,10.70
2019-04-21T05:02:56.061Z,11.20
2019-04-21T05:11:24.007Z,11.70
2019-04-21T05:15:12.905Z,11.70
2019-04-21T05:23:18.216Z,11.40
2019-04-21T05:27:46.916Z,11.30
2019-04-21T05:36:35.349Z,11.10
2019-04-21T05:40:35.898Z,11.10
2019-04-21T05:44:58.803Z,11.10
2019-04-21T05:48:59.698Z,11.10
2019-04-21T05:53:00.232Z,11.10
2019-04-21T05:57:10.140Z,11.00
2019-04-21T06:01:28.513Z,11.10
2019-04-21T06:05:36.768Z,11.20
2019-04-21T06:09:41.017Z,11.20
2019-04-21T06:17:54.915Z,11.00
2019-04-21T06:21:52.244Z,11.00
2019-04-21T06:26:18.072Z,10.90
2019-04-21T06:31:59.282Z,10.90
2019-04-21T06:36:24.747Z,10.90
2019-04-21T06:40:25.352Z,10.90
2019-04-21T06:44:53.763Z,11.00
2019-04-21T06:48:37.517Z,11.00
2019-04-21T06:53:00.772Z,11.10
2019-04-21T06:56:45.032Z,11.20
2019-04-21T07:00:48.898Z,11.20
2019-04-21T07:05:02.034Z,11.50
2019-04-21T07:09:15.920Z,12.40
2019-04-21T07:13:07.799Z,14.00
2019-04-21T07:17:25.688Z,15.60
2019-04-21T07:21:19.670Z,17.20
2019-04-21T07:25:32.585Z,18.60
2019-04-21T07:29:42.393Z,19.10
2019-04-21T07:33:54.224Z,19.90
2019-04-21T07:37:48.115Z,20.70
2019-04-21T07:41:49.729Z,21.60
2019-04-21T07:45:56.916Z,23.40
2019-04-21T07:50:17.124Z,24.10
2019-04-21T07:54:23.832Z,24.20
2019-04-21T07:58:27.248Z,25.00
2019-04-21T08:06:40.603Z,25.80
2019-04-21T08:10:38.029Z,25.20
2019-04-21T08:18:45.509Z,26.80
2019-04-21T08:22:52.798Z,27.40
2019-04-21T08:27:00.121Z,27.60
2019-04-21T08:31:09.555Z,27.50
2019-04-21T08:35:35.836Z,26.90
2019-04-21T08:39:22.704Z,25.90
2019-04-21T08:43:27.509Z,24.80
2019-04-21T08:47:25.661Z,23.90
2019-04-21T08:51:53.902Z,23.00
2019-04-21T08:56:04.421Z,22.20
2019-04-21T09:00:26.038Z,21.60
2019-04-21T09:04:29.098Z,21.10
2019-04-21T09:08:42.223Z,20.60
2019-04-21T09:12:41.785Z,20.30
2019-04-21T09:16:47.471Z,20.00
2019-04-21T09:20:58.559Z,19.70
2019-04-21T09:24:59.650Z,19.50
2019-04-21T09:29:00.707Z,19.30
2019-04-21T09:32:58.196Z,19.10
2019-04-21T09:37:15.221Z,19.10
2019-04-21T09:41:15.499Z,19.00
2019-04-21T09:45:15.655Z,18.90
2019-04-21T09:49:23.896Z,18.90
2019-04-21T09:53:33.036Z,18.90
2019-04-21T09:57:41.580Z,18.80
2019-04-21T10:01:50.358Z,18.80
2019-04-21T10:05:45.250Z,18.80
2019-04-21T10:09:50.033Z,18.90
2019-04-21T10:13:55.168Z,18.90
2019-04-21T10:18:02.925Z,18.90
2019-04-21T10:22:08.456Z,19.00
2019-04-21T10:26:13.030Z,19.10
2019-04-21T10:30:20.718Z,19.20
2019-04-21T10:34:25.355Z,19.20
2019-04-21T10:38:36.790Z,19.30
2019-04-21T10:42:37.293Z,19.40
2019-04-21T10:46:42.859Z,19.40
2019-04-21T10:50:49.438Z,19.50
2019-04-21T10:55:11.964Z,19.60
2019-04-21T10:59:00.371Z,19.60
2019-04-21T11:03:22.771Z,19.70
2019-04-21T11:08:01.250Z,19.70
2019-04-21T11:11:55.818Z,19.80
2019-04-21T11:16:01.366Z,19.90
2019-04-21T11:20:06.657Z,19.90
2019-04-21T11:24:12.290Z,19.90
2019-04-21T11:28:16.924Z,20.00
2019-04-21T11:32:21.480Z,20.00
2019-04-21T11:36:27.108Z,20.10
2019-04-21T11:40:31.930Z,20.10
2019-04-21T11:44:37.362Z,20.20
2019-04-21T11:48:42.157Z,20.30
2019-04-21T11:52:47.292Z,20.30
2019-04-21T11:56:52.857Z,20.40
2019-04-21T12:00:59.991Z,20.40
2019-04-21T12:05:05.498Z,20.50
2019-04-21T12:09:11.815Z,20.60
2019-04-21T12:13:16.599Z,20.70
2019-04-21T12:17:21.133Z,20.80
2019-04-21T12:21:28.331Z,21.00
2019-04-21T12:25:34.981Z,21.10
2019-04-21T12:29:39.907Z,21.30
2019-04-21T12:34:05.893Z,21.40
2019-04-21T12:38:10.956Z,21.60
2019-04-21T12:42:16.576Z,21.80
2019-04-21T12:46:27.700Z,21.90
2019-04-21T12:50:34.080Z,22.10
2019-04-21T12:54:39.666Z,22.20
2019-04-21T12:58:44.707Z,22.40
2019-04-21T13:02:49.793Z,22.50
2019-04-21T13:06:55.249Z,22.60
2019-04-21T13:11:00.183Z,22.90
2019-04-21T13:15:06.529Z,23.00
2019-04-21T13:19:11.446Z,23.10
2019-04-21T13:23:16.781Z,23.20
2019-04-21T13:27:22.568Z,23.40
2019-04-21T13:31:27.268Z,23.30
2019-04-21T13:35:33.195Z,23.40
2019-04-21T13:40:38.817Z,23.60
2019-04-21T13:44:21.510Z,23.70
2019-04-21T13:48:26.490Z,23.80
2019-04-21T13:52:31.218Z,23.80
2019-04-21T13:56:36.321Z,23.90
2019-04-21T14:00:42.050Z,24.00
2019-04-21T14:04:47.374Z,24.10
2019-04-21T14:08:52.540Z,24.10
2019-04-21T14:12:58.395Z,24.10
2019-04-21T14:17:05.283Z,24.10
2019-04-21T14:21:09.332Z,24.20
2019-04-21T14:25:15.337Z,24.20
2019-04-21T14:29:21.645Z,24.30
2019-04-21T14:33:27.809Z,24.40
2019-04-21T14:37:32.919Z,24.40
2019-04-21T14:41:38.038Z,24.40
2019-04-21T14:45:50.577Z,24.40
2019-04-21T14:50:15.516Z,24.30
2019-04-21T14:54:42.734Z,24.40
2019-04-21T14:59:24.732Z,24.40
2019-04-21T15:02:59.593Z,24.30
2019-04-21T15:07:05.595Z,24.30
2019-04-21T15:11:11.633Z,24.30
2019-04-21T15:15:16.436Z,24.30
2019-04-21T15:19:22.419Z,24.20
2019-04-21T15:23:29.778Z,24.10
2019-04-21T15:27:34.795Z,24.10
2019-04-21T15:31:44.199Z,24.00
2019-04-21T15:35:46.934Z,24.00
2019-04-21T15:39:52.991Z,24.00
2019-04-21T15:44:00.618Z,23.90
2019-04-21T15:48:04.380Z,23.80
2019-04-21T15:52:09.774Z,23.90
2019-04-21T15:56:20.548Z,23.80
2019-04-21T16:00:44.692Z,23.80
2019-04-21T16:04:50.547Z,23.70
2019-04-21T16:08:57.450Z,23.60
2019-04-21T16:13:01.608Z,23.60
2019-04-21T16:17:07.659Z,23.50
2019-04-21T16:21:13.700Z,23.40
2019-04-21T16:25:18.917Z,23.30
2019-04-21T16:29:24.891Z,23.20
2019-04-21T16:33:29.586Z,23.10
2019-04-21T16:37:35.426Z,23.10
2019-04-21T16:41:40.410Z,23.00
2019-04-21T16:45:46.494Z,22.90
2019-04-21T16:49:52.092Z,22.80
2019-04-21T16:54:08.175Z,22.80
2019-04-21T16:58:44.985Z,22.70
2019-04-21T17:02:50.482Z,22.50
2019-04-21T17:06:55.536Z,22.40
2019-04-21T17:11:10.864Z,22.40
2019-04-21T17:15:23.959Z,22.20
2019-04-21T17:19:22.226Z,22.20
2019-04-21T17:23:19.808Z,22.00
2019-04-21T17:27:25.050Z,21.90
2019-04-21T17:31:30.693Z,21.70
2019-04-21T17:35:35.377Z,21.60
2019-04-21T17:39:40.708Z,21.50
2019-04-21T17:43:45.676Z,21.30
2019-04-21T17:47:57.213Z,21.20
2019-04-21T17:52:18.300Z,21.00
2019-04-21T17:56:51.093Z,20.80
2019-04-21T18:05:03.738Z,20.50
2019-04-21T18:09:05.702Z,20.30
2019-04-21T18:13:03.433Z,20.10
2019-04-21T18:17:00.393Z,19.90
2019-04-21T18:21:12.421Z,19.70
2019-04-21T18:25:31.756Z,19.50
2019-04-21T18:29:25.749Z,19.30
2019-04-21T18:33:36.604Z,19.10
2019-04-21T18:38:15.701Z,18.90
2019-04-21T18:42:47.799Z,18.80
2019-04-21T18:47:16.347Z,18.60
2019-04-21T18:51:27.664Z,18.40
2019-04-21T18:55:34.355Z,18.30
2019-04-21T18:59:36.157Z,18.20
2019-04-21T19:03:43.003Z,18.00
2019-04-21T19:08:04.450Z,18.00
2019-04-21T19:12:16.708Z,17.80
2019-04-21T19:20:29.882Z,17.60
2019-04-21T19:24:46.577Z,17.50
2019-04-21T19:28:47.363Z,17.30
2019-04-21T19:32:48.214Z,17.20
2019-04-21T19:36:34.970Z,17.10
2019-04-21T19:40:50.844Z,16.90
2019-04-21T19:44:59.316Z,16.80
2019-04-21T19:49:16.995Z,16.60
2019-04-21T19:53:07.472Z,16.50
2019-04-21T19:57:05.177Z,16.30
2019-04-21T20:01:09.760Z,16.20
2019-04-21T20:05:24.180Z,16.00
2019-04-21T20:09:37.967Z,15.90
2019-04-21T20:14:30.775Z,15.70
2019-04-21T20:17:47.803Z,15.50
2019-04-21T20:21:39.236Z,15.40
2019-04-21T20:25:52.557Z,15.30
2019-04-21T20:30:06.413Z,15.20
2019-04-21T20:34:24.164Z,15.00
2019-04-21T20:38:16.196Z,14.90
2019-04-21T20:42:21.124Z,14.80
2019-04-21T20:46:36.612Z,14.70
2019-04-21T20:50:33.703Z,14.60
2019-04-21T20:54:45.557Z,14.40
2019-04-21T20:58:52.630Z,14.30
2019-04-21T21:03:02.606Z,14.20
2019-04-21T21:07:06.536Z,14.20
2019-04-21T21:11:06.868Z,14.10
2019-04-21T21:15:10.011Z,14.00
2019-04-21T21:19:39.758Z,14.00
2019-04-21T21:23:26.107Z,13.90
2019-04-21T21:27:31.900Z,13.80
2019-04-21T21:31:42.133Z,13.70
2019-04-21T21:35:41.227Z,13.60
2019-04-21T21:39:58.339Z,13.50
2019-04-21T21:43:44.830Z,13.40
2019-04-21T21:48:05.277Z,13.40
2019-04-21T21:52:06.135Z,13.30
2019-04-21T21:56:00.725Z,13.20
2019-04-21T22:00:12.304Z,13.10
2019-04-21T22:04:20.848Z,13.00
2019-04-21T22:08:20.876Z,12.90
2019-04-21T22:12:25.828Z,12.80
2019-04-21T22:16:46.180Z,12.80
2019-04-21T22:20:56.493Z,12.70
2019-04-21T22:24:55.705Z,12.60
2019-04-21T22:28:51.692Z,12.50
2019-04-21T22:33:03.806Z,12.40
2019-04-21T22:37:23.258Z,12.30
2019-04-21T22:41:18.935Z,12.30
2019-04-21T22:45:15.480Z,12.20
2019-04-21T22:49:21.862Z,12.10
2019-04-21T22:53:27.986Z,12.00
2019-04-21T22:57:37.821Z,12.00
2019-04-21T23:01:42.590Z,11.90
2019-04-21T23:05:46.544Z,11.80
2019-04-21T23:09:51.448Z,11.70
2019-04-21T23:14:03.735Z,11.60
2019-04-21T23:18:22.035Z,11.60
2019-04-21T23:22:29.511Z,11.50
2019-04-21T23:26:32.308Z,11.50
2019-04-21T23:30:45.088Z,11.50
2019-04-21T23:34:34.060Z,11.40
2019-04-21T23:38:41.744Z,11.40
2019-04-21T23:42:43.647Z,11.40
2019-04-21T23:46:47.644Z,11.40
2019-04-21T23:51:01.877Z,11.30
2019-04-21T23:54:59.086Z,11.30
2019-04-21T23:59:07.422Z,11.20
